createdAt,value
2022-11-24T00:02:04.067Z,5.07
2022-11-24T00:04:30.384Z,4.75
2022-11-24T00:06:56.864Z,5.28
2022-11-24T00:09:23.286Z,5.72
2022-11-24T00:11:49.587Z,4.57
2022-11-24T00:14:15.969Z,4.68
2022-11-24T00:16:42.352Z,5.40
2022-11-24T00:19:09.447Z,5.05
2022-11-24T00:21:36.429Z,4.68
2022-11-24T00:24:02.757Z,4.28
2022-11-24T00:26:30.571Z,3.67
2022-11-24T00:28:57.956Z,3.80
2022-11-24T00:31:25.506Z,4.18
2022-11-24T00:33:52.947Z,4.00
2022-11-24T00:36:19.868Z,4.80
2022-11-24T00:38:46.453Z,5.18
2022-11-24T00:41:13.110Z,5.05
2022-11-24T00:43:39.376Z,4.90
2022-11-24T00:46:05.762Z,3.67
2022-11-24T00:48:32.106Z,5.45
2022-11-24T00:50:59.526Z,5.22
2022-11-24T00:53:26.074Z,5.50
2022-11-24T00:55:52.632Z,5.03
2022-11-24T00:58:18.935Z,4.97
2022-11-24T01:00:45.302Z,5.82
2022-11-24T01:03:12.541Z,5.32
2022-11-24T01:05:39.071Z,5.53
2022-11-24T01:08:05.889Z,4.35
2022-11-24T01:10:32.483Z,4.22
2022-11-24T01:12:59.317Z,4.53
2022-11-24T01:15:25.911Z,4.63
2022-11-24T01:17:52.281Z,3.88
2022-11-24T01:20:18.901Z,4.47
2022-11-24T01:22:47.517Z,4.38
2022-11-24T01:25:13.772Z,5.18
2022-11-24T01:27:40.131Z,4.78
2022-11-24T01:30:07.290Z,5.32
2022-11-24T01:32:34.197Z,4.22
2022-11-24T01:35:00.496Z,4.80
2022-11-24T01:37:26.768Z,5.75
2022-11-24T01:39:53.083Z,3.88
2022-11-24T01:42:19.338Z,4.28
2022-11-24T01:44:45.625Z,2.90
2022-11-24T01:47:11.910Z,4.13
2022-11-24T01:49:40.936Z,5.05
2022-11-24T01:52:10.530Z,4.00
2022-11-24T01:54:38.641Z,3.97
2022-11-24T01:57:11.198Z,5.75
2022-11-24T01:59:37.537Z,4.88
2022-11-24T02:02:04.283Z,2.97
2022-11-24T02:04:32.770Z,3.55
2022-11-24T02:07:01.454Z,3.78
2022-11-24T02:09:32.323Z,3.30
2022-11-24T02:11:59.671Z,4.75
2022-11-24T02:14:26.457Z,3.95
2022-11-24T02:16:53.141Z,3.35
2022-11-24T02:19:28.327Z,3.50
2022-11-24T02:21:54.609Z,4.78
2022-11-24T02:24:47.180Z,3.25
2022-11-24T02:27:13.564Z,2.85
2022-11-24T02:29:39.960Z,3.53
2022-11-24T02:32:07.251Z,3.35
2022-11-24T02:34:33.888Z,3.33
2022-11-24T02:37:00.540Z,2.80
2022-11-24T02:39:26.840Z,2.67
2022-11-24T02:41:54.534Z,4.03
2022-11-24T02:44:21.929Z,3.42
2022-11-24T02:46:48.243Z,3.63
2022-11-24T02:49:15.606Z,4.72
2022-11-24T02:51:41.866Z,3.55
2022-11-24T02:54:08.174Z,4.13
2022-11-24T02:56:34.443Z,3.33
2022-11-24T02:59:00.714Z,3.42
2022-11-24T03:01:27.155Z,3.53
2022-11-24T03:03:53.453Z,3.00
2022-11-24T03:06:19.703Z,3.28
2022-11-24T03:08:45.958Z,5.22
2022-11-24T03:11:12.235Z,3.88
2022-11-24T03:13:38.560Z,3.67
2022-11-24T03:16:07.782Z,3.90
2022-11-24T03:18:34.106Z,4.05
2022-11-24T03:21:00.436Z,2.85
2022-11-24T03:23:26.701Z,4.20
2022-11-24T03:25:52.942Z,3.65
2022-11-24T03:28:19.212Z,3.83
2022-11-24T03:30:47.980Z,4.28
2022-11-24T03:33:14.273Z,4.20
2022-11-24T03:35:40.550Z,3.80
2022-11-24T03:38:06.893Z,4.05
2022-11-24T03:40:33.142Z,3.75
2022-11-24T03:42:59.411Z,4.10
2022-11-24T03:48:12.166Z,3.85
2022-11-24T03:50:38.497Z,3.50
2022-11-24T03:53:04.794Z,3.13
2022-11-24T03:55:31.086Z,3.47
2022-11-24T03:57:57.376Z,3.88
2022-11-24T04:00:23.647Z,4.22
2022-11-24T04:02:50.007Z,4.15
2022-11-24T04:05:16.308Z,3.25
2022-11-24T04:07:42.680Z,4.18
2022-11-24T04:10:09.051Z,3.70
2022-11-24T04:12:44.424Z,3.75
2022-11-24T04:15:11.714Z,3.50
2022-11-24T04:17:37.938Z,3.45
2022-11-24T04:20:05.235Z,3.80
2022-11-24T04:22:31.442Z,3.35
2022-11-24T04:24:57.747Z,4.47
2022-11-24T04:27:24.047Z,3.70
2022-11-24T04:29:51.047Z,3.85
2022-11-24T04:32:17.385Z,3.20
2022-11-24T04:34:43.667Z,3.25
2022-11-24T04:37:10.134Z,4.25
2022-11-24T04:39:36.368Z,3.70
2022-11-24T04:42:02.618Z,3.65
2022-11-24T04:44:28.865Z,3.42
2022-11-24T04:46:55.203Z,4.03
2022-11-24T04:49:21.513Z,4.20
2022-11-24T04:51:47.747Z,3.75
2022-11-24T04:54:14.025Z,3.65
2022-11-24T04:56:41.070Z,3.10
2022-11-24T04:59:08.693Z,4.72
2022-11-24T05:01:35.411Z,3.63
2022-11-24T05:04:01.724Z,3.20
2022-11-24T05:06:28.022Z,3.20
2022-11-24T05:08:54.249Z,3.53
2022-11-24T05:11:20.543Z,3.40
2022-11-24T05:13:46.825Z,3.33
2022-11-24T05:16:13.102Z,3.58
2022-11-24T05:18:39.546Z,2.85
2022-11-24T05:21:05.924Z,3.28
2022-11-24T05:23:32.274Z,3.22
2022-11-24T05:26:01.622Z,3.10
2022-11-24T05:28:28.401Z,3.72
2022-11-24T05:30:54.713Z,2.63
2022-11-24T05:33:22.883Z,2.75
2022-11-24T05:35:49.726Z,3.00
2022-11-24T05:38:16.782Z,2.30
2022-11-24T05:40:43.571Z,2.65
2022-11-24T05:43:13.597Z,2.30
2022-11-24T05:45:40.001Z,2.78
2022-11-24T05:48:07.174Z,2.05
2022-11-24T05:50:33.976Z,2.28
2022-11-24T05:53:07.714Z,2.08
2022-11-24T05:55:34.734Z,1.92
2022-11-24T05:58:01.992Z,1.88
2022-11-24T06:00:28.655Z,1.73
2022-11-24T06:02:56.540Z,2.45
2022-11-24T06:05:23.030Z,2.25
2022-11-24T06:07:49.594Z,1.77
2022-11-24T06:10:16.706Z,2.22
2022-11-24T06:12:43.237Z,1.92
2022-11-24T06:15:09.652Z,1.35
2022-11-24T06:17:35.917Z,1.50
2022-11-24T06:20:02.210Z,1.80
2022-11-24T06:22:28.508Z,1.90
2022-11-24T06:24:54.755Z,1.98
2022-11-24T06:27:21.042Z,2.15
2022-11-24T06:29:47.484Z,2.60
2022-11-24T06:32:13.885Z,1.77
2022-11-24T06:34:40.246Z,2.05
2022-11-24T06:37:06.578Z,2.05
2022-11-24T06:39:32.839Z,2.90
2022-11-24T06:41:59.120Z,3.05
2022-11-24T06:44:25.625Z,2.80
2022-11-24T06:46:51.882Z,3.17
2022-11-24T06:49:18.202Z,3.42
2022-11-24T06:51:44.604Z,3.88
2022-11-24T06:54:13.726Z,3.83
2022-11-24T06:56:40.021Z,4.50
2022-11-24T06:59:06.314Z,4.80
2022-11-24T07:01:32.579Z,4.10
2022-11-24T07:03:58.989Z,3.90
2022-11-24T07:06:25.694Z,4.28
2022-11-24T07:08:52.641Z,4.35
2022-11-24T07:11:20.535Z,5.35
2022-11-24T07:13:47.117Z,4.90
2022-11-24T07:16:14.274Z,5.35
2022-11-24T07:18:40.737Z,5.10
2022-11-24T07:21:07.130Z,5.20
2022-11-24T07:23:33.357Z,5.28
2022-11-24T07:26:06.538Z,5.85
2022-11-24T07:28:33.627Z,5.60
2022-11-24T07:31:04.372Z,6.25
2022-11-24T07:33:30.657Z,5.93
2022-11-24T07:35:59.198Z,6.18
2022-11-24T07:38:25.426Z,6.53
2022-11-24T07:40:51.661Z,6.10
2022-11-24T07:43:20.365Z,6.82
2022-11-24T07:45:51.715Z,5.93
2022-11-24T07:48:18.067Z,6.05
2022-11-24T07:50:44.465Z,6.45
2022-11-24T07:53:10.748Z,6.28
2022-11-24T07:55:37.078Z,6.65
2022-11-24T07:58:03.416Z,6.07
2022-11-24T08:00:29.666Z,6.20
2022-11-24T08:02:55.902Z,7.22
2022-11-24T08:05:22.171Z,6.93
2022-11-24T08:07:48.546Z,6.97
2022-11-24T08:10:15.225Z,7.43
2022-11-24T08:12:43.803Z,7.45
2022-11-24T08:15:11.322Z,7.00
2022-11-24T08:17:37.914Z,6.22
2022-11-24T08:20:04.362Z,7.25
2022-11-24T08:22:30.634Z,6.53
2022-11-24T08:24:56.865Z,7.13
2022-11-24T08:27:23.140Z,6.20
2022-11-24T08:29:49.374Z,6.55
2022-11-24T08:32:21.704Z,6.57
2022-11-24T08:34:48.698Z,5.90
2022-11-24T08:37:14.934Z,6.65
2022-11-24T08:39:41.189Z,6.85
2022-11-24T08:42:07.553Z,6.68
2022-11-24T08:44:34.280Z,5.30
2022-11-24T08:47:00.809Z,6.82
2022-11-24T08:49:27.211Z,6.07
2022-11-24T08:51:53.497Z,5.18
2022-11-24T08:54:20.419Z,5.75
2022-11-24T08:56:48.870Z,4.90
2022-11-24T08:59:15.141Z,5.28
2022-11-24T09:01:41.973Z,5.05
2022-11-24T09:04:08.337Z,5.82
2022-11-24T09:06:34.686Z,4.20
2022-11-24T09:09:01.440Z,5.32
2022-11-24T09:11:27.753Z,4.65
2022-11-24T09:13:54.704Z,4.15
2022-11-24T09:16:22.516Z,4.20
2022-11-24T09:18:54.477Z,5.15
2022-11-24T09:21:21.230Z,3.90
2022-11-24T09:23:51.261Z,3.97
2022-11-24T09:26:19.488Z,4.28
2022-11-24T09:28:46.023Z,4.55
2022-11-24T09:31:13.421Z,4.75
2022-11-24T09:33:40.650Z,3.53
2022-11-24T09:36:07.488Z,3.50
2022-11-24T09:38:33.955Z,3.97
2022-11-24T09:41:26.256Z,3.83
2022-11-24T09:44:07.546Z,3.53
2022-11-24T09:47:09.356Z,3.58
2022-11-24T09:49:51.535Z,4.20
2022-11-24T09:52:20.884Z,3.05
2022-11-24T09:54:52.906Z,3.13
2022-11-24T09:57:21.756Z,4.15
2022-11-24T09:59:48.050Z,3.22
2022-11-24T10:02:14.759Z,2.85
2022-11-24T10:04:44.796Z,3.45
2022-11-24T10:07:21.203Z,3.30
2022-11-24T10:09:50.388Z,3.13
2022-11-24T10:12:28.775Z,4.43
2022-11-24T10:14:59.164Z,2.95
2022-11-24T10:17:31.146Z,3.30
2022-11-24T10:20:03.781Z,2.97
2022-11-24T10:22:36.905Z,3.28
2022-11-24T10:25:03.146Z,3.50
2022-11-24T10:27:39.231Z,2.92
2022-11-24T10:30:12.402Z,3.65
2022-11-24T10:32:41.185Z,2.90
2022-11-24T10:35:18.380Z,2.85
2022-11-24T10:38:03.423Z,3.40
2022-11-24T10:41:02.211Z,3.20
2022-11-24T10:43:29.320Z,2.60
2022-11-24T10:46:00.656Z,4.28
2022-11-24T10:48:29.275Z,2.75
2022-11-24T10:51:06.276Z,3.72
2022-11-24T10:53:34.377Z,3.38
2022-11-24T10:56:01.645Z,3.42
2022-11-24T10:58:38.612Z,3.42
2022-11-24T11:01:14.242Z,3.67
2022-11-24T11:03:51.462Z,3.05
2022-11-24T11:06:22.555Z,3.70
2022-11-24T11:08:48.906Z,3.70
2022-11-24T11:11:19.750Z,3.58
2022-11-24T11:13:52.199Z,4.05
2022-11-24T11:16:41.898Z,3.85
2022-11-24T11:19:47.896Z,3.33
2022-11-24T11:22:25.906Z,4.10
2022-11-24T11:25:04.472Z,3.97
2022-11-24T11:27:30.818Z,4.20
2022-11-24T11:35:49.763Z,4.75
2022-11-24T11:38:16.142Z,4.55
2022-11-24T11:40:43.683Z,4.78
2022-11-24T11:43:15.923Z,4.47
2022-11-24T11:45:45.073Z,4.05
2022-11-24T11:48:25.703Z,3.93
2022-11-24T11:53:44.925Z,4.25
2022-11-24T11:56:26.167Z,4.68
2022-11-24T11:58:58.435Z,4.80
2022-11-24T12:01:25.960Z,4.53
2022-11-24T12:04:11.948Z,4.88
2022-11-24T12:06:44.407Z,6.30
2022-11-24T12:09:29.108Z,4.90
2022-11-24T12:12:14.086Z,4.65
2022-11-24T12:14:57.666Z,4.47
2022-11-24T12:17:23.877Z,4.47
2022-11-24T12:19:50.122Z,4.90
2022-11-24T12:22:36.733Z,4.47
2022-11-24T12:25:14.460Z,4.18
2022-11-24T12:28:03.758Z,4.15
2022-11-24T12:30:35.349Z,4.63
2022-11-24T12:33:07.698Z,5.20
2022-11-24T12:35:37.493Z,6.82
2022-11-24T12:38:18.140Z,4.68
2022-11-24T12:41:39.856Z,4.38
2022-11-24T12:43:59.722Z,4.43
2022-11-24T12:46:29.274Z,5.15
2022-11-24T12:49:04.855Z,4.88
2022-11-24T12:51:39.608Z,4.40
2022-11-24T12:54:10.437Z,4.05
2022-11-24T12:56:40.505Z,4.85
2022-11-24T12:59:15.412Z,4.90
2022-11-24T13:01:50.092Z,4.65
2022-11-24T13:04:30.930Z,5.25
2022-11-24T13:07:11.365Z,4.43
2022-11-24T13:09:38.001Z,4.20
2022-11-24T13:12:14.148Z,4.95
2022-11-24T13:14:44.270Z,4.93
2022-11-24T13:17:33.748Z,4.55
2022-11-24T13:20:24.259Z,4.63
2022-11-24T13:22:50.643Z,4.32
2022-11-24T13:25:21.062Z,5.07
2022-11-24T13:30:33.000Z,5.18
2022-11-24T13:33:19.548Z,6.28
2022-11-24T13:36:02.832Z,5.00
2022-11-24T13:38:52.818Z,5.13
2022-11-24T13:41:31.225Z,4.30
2022-11-24T13:44:15.486Z,4.45
2022-11-24T13:47:05.298Z,5.95
2022-11-24T13:52:18.453Z,8.00
2022-11-24T13:54:44.736Z,8.75
2022-11-24T13:57:34.703Z,6.75
2022-11-24T14:00:01.599Z,6.60
2022-11-24T14:02:29.034Z,7.00
2022-11-24T14:04:55.441Z,7.45
2022-11-24T14:07:22.709Z,5.95
2022-11-24T14:09:52.152Z,5.90
2022-11-24T14:12:22.331Z,5.65
2022-11-24T14:14:49.511Z,5.50
2022-11-24T14:17:17.479Z,4.90
2022-11-24T14:19:45.058Z,4.32
2022-11-24T14:22:34.687Z,4.50
2022-11-24T14:25:02.019Z,4.97
2022-11-24T14:27:30.605Z,4.13
2022-11-24T14:29:59.033Z,5.70
2022-11-24T14:32:25.554Z,7.07
2022-11-24T14:34:54.045Z,8.70
2022-11-24T14:37:20.577Z,8.70
2022-11-24T14:39:46.991Z,5.35
2022-11-24T14:42:16.031Z,4.80
2022-11-24T14:44:47.979Z,5.57
2022-11-24T14:47:20.327Z,5.00
2022-11-24T14:49:46.776Z,4.07
2022-11-24T14:52:14.384Z,4.38
2022-11-24T14:54:48.269Z,6.47
2022-11-24T14:57:25.584Z,4.90
2022-11-24T15:00:10.787Z,5.75
2022-11-24T15:02:41.330Z,5.55
2022-11-24T15:07:35.732Z,7.53
2022-11-24T15:10:03.703Z,7.32
2022-11-24T15:12:30.509Z,6.38
2022-11-24T15:15:05.980Z,5.70
2022-11-24T15:17:32.501Z,4.82
2022-11-24T15:20:01.751Z,5.80
2022-11-24T15:22:35.148Z,5.85
2022-11-24T15:25:02.062Z,6.20
2022-11-24T15:27:28.435Z,6.57
2022-11-24T15:29:54.646Z,5.93
2022-11-24T15:32:20.889Z,6.63
2022-11-24T15:34:47.112Z,5.35
2022-11-24T15:37:13.369Z,5.40
2022-11-24T15:39:39.646Z,4.45
2022-11-24T15:42:05.960Z,4.95
2022-11-24T15:44:33.016Z,5.57
2022-11-24T15:46:59.597Z,5.53
2022-11-24T15:49:25.914Z,5.43
2022-11-24T15:51:52.194Z,4.07
2022-11-24T15:54:18.713Z,5.13
2022-11-24T15:56:45.021Z,4.15
2022-11-24T15:59:18.834Z,5.53
2022-11-24T16:01:49.594Z,6.28
2022-11-24T16:04:16.341Z,5.72
2022-11-24T16:06:42.682Z,6.68
2022-11-24T16:09:12.210Z,7.70
2022-11-24T16:11:38.480Z,7.60
2022-11-24T16:14:04.822Z,5.20
2022-11-24T16:16:31.234Z,8.52
2022-11-24T16:18:57.477Z,9.15
2022-11-24T16:21:23.733Z,8.70
2022-11-24T16:23:50.071Z,8.45
2022-11-24T16:26:16.360Z,5.55
2022-11-24T16:28:42.857Z,5.47
2022-11-24T16:31:09.258Z,5.07
2022-11-24T16:33:38.596Z,5.43
2022-11-24T16:36:05.014Z,5.10
2022-11-24T16:38:31.300Z,5.20
2022-11-24T16:40:57.661Z,5.03
2022-11-24T16:43:27.190Z,4.57
2022-11-24T16:46:08.726Z,5.63
2022-11-24T16:48:38.056Z,5.22
2022-11-24T16:51:10.959Z,5.60
2022-11-24T16:53:37.305Z,5.13
2022-11-24T16:56:04.012Z,5.53
2022-11-24T16:58:30.314Z,5.35
2022-11-24T17:01:02.691Z,4.85
2022-11-24T17:03:30.516Z,5.45
2022-11-24T17:05:57.662Z,5.55
2022-11-24T17:08:23.962Z,5.53
2022-11-24T17:10:50.190Z,5.90
2022-11-24T17:13:16.392Z,5.28
2022-11-24T17:15:47.264Z,4.78
2022-11-24T17:18:24.574Z,5.70
2022-11-24T17:20:51.629Z,6.30
2022-11-24T17:23:19.510Z,4.53
2022-11-24T17:25:45.915Z,4.90
2022-11-24T17:28:12.379Z,4.93
2022-11-24T17:30:38.665Z,4.68
2022-11-24T17:33:04.951Z,5.35
2022-11-24T17:35:33.252Z,5.53
2022-11-24T17:38:00.777Z,6.10
2022-11-24T17:40:29.066Z,5.85
2022-11-24T17:42:59.510Z,4.97
2022-11-24T17:45:26.246Z,7.22
2022-11-24T17:47:52.557Z,5.47
2022-11-24T17:50:22.546Z,5.82
2022-11-24T17:52:52.229Z,5.28
2022-11-24T17:55:18.457Z,6.03
2022-11-24T17:57:44.795Z,5.45
2022-11-24T18:00:11.439Z,5.40
2022-11-24T18:02:37.984Z,6.05
2022-11-24T18:05:04.473Z,4.22
2022-11-24T18:07:30.901Z,5.07
2022-11-24T18:09:57.323Z,4.03
2022-11-24T18:12:23.647Z,4.43
2022-11-24T18:14:49.950Z,6.90
2022-11-24T18:17:16.243Z,5.35
2022-11-24T18:19:42.465Z,4.78
2022-11-24T18:22:08.725Z,4.55
2022-11-24T18:24:34.963Z,5.13
2022-11-24T18:27:01.231Z,4.25
2022-11-24T18:29:27.506Z,4.10
2022-11-24T18:31:54.018Z,4.82
2022-11-24T18:34:20.301Z,4.38
2022-11-24T18:36:50.629Z,4.97
2022-11-24T18:39:18.126Z,4.38
2022-11-24T18:41:44.741Z,4.10
2022-11-24T18:44:11.055Z,4.15
2022-11-24T18:46:37.551Z,5.15
2022-11-24T18:49:04.111Z,4.95
2022-11-24T18:51:30.372Z,4.38
2022-11-24T18:53:59.326Z,3.80
2022-11-24T18:56:26.106Z,5.10
2022-11-24T18:58:53.455Z,5.25
2022-11-24T19:01:24.186Z,4.53
2022-11-24T19:03:52.065Z,4.15
2022-11-24T19:06:28.553Z,4.00
2022-11-24T19:08:55.310Z,5.03
2022-11-24T19:11:24.783Z,4.72
2022-11-24T19:13:51.252Z,4.63
2022-11-24T19:16:18.447Z,5.00
2022-11-24T19:18:48.929Z,4.13
2022-11-24T19:21:19.777Z,4.30
2022-11-24T19:23:46.075Z,4.72
2022-11-24T19:26:12.323Z,3.85
2022-11-24T19:28:38.537Z,4.45
2022-11-24T19:31:06.047Z,4.25
2022-11-24T19:33:32.598Z,9.20
2022-11-24T19:36:02.826Z,4.20
2022-11-24T19:38:30.352Z,4.85
2022-11-24T19:41:14.737Z,5.18
2022-11-24T19:43:41.589Z,5.72
2022-11-24T19:46:09.149Z,3.83
2022-11-24T19:48:37.064Z,4.53
2022-11-24T19:51:04.601Z,4.55
2022-11-24T19:53:31.546Z,4.78
2022-11-24T19:56:08.175Z,5.43
2022-11-24T19:58:34.785Z,4.45
2022-11-24T20:01:09.111Z,5.00
2022-11-24T20:03:35.942Z,4.95
2022-11-24T20:06:02.481Z,4.40
2022-11-24T20:08:30.241Z,4.15
2022-11-24T20:11:06.790Z,3.83
2022-11-24T20:13:36.918Z,3.67
2022-11-24T20:16:10.862Z,4.13
2022-11-24T20:18:42.015Z,4.40
2022-11-24T20:21:09.662Z,4.15
2022-11-24T20:23:36.230Z,4.57
2022-11-24T20:26:06.217Z,3.35
2022-11-24T20:28:32.680Z,3.97
2022-11-24T20:31:07.089Z,3.60
2022-11-24T20:33:33.816Z,4.80
2022-11-24T20:36:03.802Z,3.88
2022-11-24T20:38:30.806Z,3.63
2022-11-24T20:41:16.886Z,3.78
2022-11-24T20:43:43.738Z,3.85
2022-11-24T20:46:11.538Z,3.88
2022-11-24T20:48:37.927Z,5.38
2022-11-24T20:51:11.237Z,5.68
2022-11-24T20:53:37.706Z,3.13
2022-11-24T20:56:06.418Z,4.03
2022-11-24T20:58:33.403Z,3.25
2022-11-24T21:01:03.899Z,3.78
2022-11-24T21:03:30.241Z,3.42
2022-11-24T21:05:56.997Z,3.63
2022-11-24T21:08:23.209Z,3.78
2022-11-24T21:10:56.426Z,3.10
2022-11-24T21:13:23.013Z,3.75
2022-11-24T21:15:49.577Z,4.18
2022-11-24T21:18:15.968Z,4.18
2022-11-24T21:20:42.261Z,4.85
2022-11-24T21:23:08.648Z,3.65
2022-11-24T21:25:34.877Z,3.67
2022-11-24T21:28:01.120Z,3.75
2022-11-24T21:30:27.654Z,5.07
2022-11-24T21:32:53.889Z,4.00
2022-11-24T21:35:20.174Z,5.35
2022-11-24T21:37:46.434Z,3.85
2022-11-24T21:40:14.921Z,4.00
2022-11-24T21:42:41.189Z,4.10
2022-11-24T21:45:10.665Z,4.53
2022-11-24T21:47:37.611Z,3.72
2022-11-24T21:50:07.285Z,4.18
2022-11-24T21:52:33.530Z,3.50
2022-11-24T21:54:59.913Z,4.13
2022-11-24T21:57:26.348Z,3.63
2022-11-24T21:59:52.573Z,3.50
2022-11-24T22:02:18.896Z,3.38
2022-11-24T22:04:45.198Z,3.42
2022-11-24T22:07:11.537Z,4.13
2022-11-24T22:09:37.850Z,4.70
2022-11-24T22:12:04.203Z,4.05
2022-11-24T22:14:30.524Z,4.63
2022-11-24T22:16:56.843Z,4.43
2022-11-24T22:19:23.165Z,4.20
2022-11-24T22:21:49.462Z,4.18
2022-11-24T22:24:15.707Z,4.07
2022-11-24T22:26:42.184Z,4.30
2022-11-24T22:29:08.465Z,3.72
2022-11-24T22:31:34.798Z,3.65
2022-11-24T22:34:01.153Z,3.83
2022-11-24T22:36:28.514Z,4.78
2022-11-24T22:38:58.872Z,4.05
2022-11-24T22:41:25.249Z,4.78
2022-11-24T22:43:51.528Z,3.95
2022-11-24T22:46:18.997Z,4.38
2022-11-24T22:48:46.174Z,3.80
2022-11-24T22:51:13.521Z,3.80
2022-11-24T22:53:40.432Z,4.45
2022-11-24T22:56:09.374Z,3.78
2022-11-24T22:58:35.746Z,4.38
2022-11-24T23:01:09.695Z,3.67
2022-11-24T23:03:36.244Z,4.40
2022-11-24T23:06:03.656Z,4.07
2022-11-24T23:08:30.122Z,4.15
2022-11-24T23:11:00.513Z,4.40
2022-11-24T23:13:26.940Z,4.40
2022-11-24T23:15:53.449Z,4.18
2022-11-24T23:18:19.836Z,3.55
2022-11-24T23:20:46.147Z,3.80
2022-11-24T23:23:12.450Z,5.10
2022-11-24T23:25:39.044Z,4.22
2022-11-24T23:28:05.318Z,4.95
2022-11-24T23:30:31.611Z,3.92
2022-11-24T23:32:57.926Z,3.08
2022-11-24T23:35:24.271Z,3.70
2022-11-24T23:38:07.147Z,4.40
2022-11-24T23:40:34.050Z,4.05
2022-11-24T23:43:00.334Z,3.80
2022-11-24T23:45:26.719Z,3.53
2022-11-24T23:47:53.255Z,4.20
2022-11-24T23:50:19.514Z,3.42
2022-11-24T23:52:45.798Z,3.53
2022-11-24T23:55:12.065Z,3.97
2022-11-24T23:57:38.273Z,4.05
